createdAt,value
2018-01-29T00:04:57.560Z,1021.13
2018-01-29T00:09:57.220Z,1021.13
2018-01-29T00:14:56.911Z,1021.13
2018-01-29T00:19:56.456Z,1021.12
2018-01-29T00:24:56.486Z,1020.96
2018-01-29T00:29:52.388Z,1020.96
2018-01-29T00:34:49.827Z,1020.82
2018-01-29T00:39:49.335Z,1020.80
2018-01-29T00:44:48.831Z,1020.73
2018-01-29T00:49:44.666Z,1020.64
2018-01-29T00:54:41.138Z,1020.71
2018-01-29T00:59:37.700Z,1020.61
2018-01-29T01:04:37.291Z,1020.57
2018-01-29T01:09:33.276Z,1020.53
2018-01-29T01:14:32.904Z,1020.49
2018-01-29T01:19:27.895Z,1020.37
2018-01-29T01:24:24.759Z,1020.53
2018-01-29T01:29:20.450Z,1020.39
2018-01-29T01:34:16.805Z,1020.28
2018-01-29T01:39:17.721Z,1020.39
2018-01-29T01:44:12.637Z,1020.28
2018-01-29T01:49:13.356Z,1020.29
2018-01-29T01:54:11.959Z,1020.24
2018-01-29T01:59:08.753Z,1020.22
2018-01-29T02:04:09.853Z,1020.21
2018-01-29T02:09:06.004Z,1020.22
2018-01-29T02:14:05.644Z,1020.15
2018-01-29T02:19:05.924Z,1020.10
2018-01-29T02:24:05.781Z,1019.99
2018-01-29T02:29:05.519Z,1019.97
2018-01-29T02:34:01.074Z,1019.83
2018-01-29T02:39:01.634Z,1019.94
2018-01-29T02:43:56.582Z,1019.77
2018-01-29T02:48:57.058Z,1019.66
2018-01-29T02:53:57.032Z,1019.65
2018-01-29T02:58:56.929Z,1019.60
2018-01-29T03:03:56.492Z,1019.54
2018-01-29T03:08:52.251Z,1019.55
2018-01-29T03:13:51.846Z,1019.47
2018-01-29T03:18:47.848Z,1019.34
2018-01-29T03:23:47.251Z,1019.48
2018-01-29T03:28:42.072Z,1019.30
2018-01-29T03:33:38.829Z,1019.26
2018-01-29T03:38:39.278Z,1019.24
2018-01-29T03:43:34.340Z,1019.26
2018-01-29T03:48:34.584Z,1019.32
2018-01-29T03:53:33.652Z,1019.27
2018-01-29T03:58:28.734Z,1019.21
2018-01-29T04:03:25.290Z,1019.22
2018-01-29T04:08:22.572Z,1019.02
2018-01-29T04:13:18.744Z,1019.04
2018-01-29T04:18:18.399Z,1018.93
2018-01-29T04:23:19.108Z,1018.88
2018-01-29T04:28:18.060Z,1018.77
2018-01-29T04:33:17.903Z,1018.79
2018-01-29T04:38:16.434Z,1018.78
2018-01-29T04:43:11.541Z,1018.62
2018-01-29T04:48:12.324Z,1018.61
2018-01-29T04:53:11.912Z,1018.69
2018-01-29T04:58:06.704Z,1018.73
2018-01-29T05:03:04.210Z,1018.72
2018-01-29T05:08:01.171Z,1018.73
2018-01-29T05:13:00.766Z,1018.71
2018-01-29T05:17:59.453Z,1018.64
2018-01-29T05:22:54.374Z,1018.68
2018-01-29T05:27:55.428Z,1018.74
2018-01-29T05:32:54.127Z,1018.71
2018-01-29T05:37:49.982Z,1018.68
2018-01-29T05:42:45.684Z,1018.48
2018-01-29T05:47:45.205Z,1018.43
2018-01-29T05:52:41.002Z,1018.52
2018-01-29T05:57:36.841Z,1018.54
2018-01-29T06:02:37.502Z,1018.48
2018-01-29T06:07:32.305Z,1018.52
2018-01-29T06:12:33.190Z,1018.30
2018-01-29T06:17:34.391Z,1018.48
2018-01-29T06:22:34.162Z,1018.48
2018-01-29T06:27:29.932Z,1018.47
2018-01-29T06:32:32.385Z,1018.48
2018-01-29T06:42:27.861Z,1018.48
2018-01-29T06:47:23.259Z,1018.62
2018-01-29T06:52:23.988Z,1018.56
2018-01-29T06:57:22.732Z,1018.55
2018-01-29T07:02:22.290Z,1018.48
2018-01-29T07:07:17.722Z,1018.44
2018-01-29T07:12:17.151Z,1018.52
2018-01-29T07:17:17.793Z,1018.42
2018-01-29T07:22:16.670Z,1018.21
2018-01-29T07:27:15.642Z,1018.27
2018-01-29T07:32:15.878Z,1018.30
2018-01-29T07:37:10.750Z,1018.29
2018-01-29T07:42:10.741Z,1018.39
2018-01-29T07:47:09.947Z,1018.42
2018-01-29T07:52:08.815Z,1018.49
2018-01-29T07:57:07.804Z,1018.37
2018-01-29T08:02:09.585Z,1018.35
2018-01-29T08:07:05.117Z,1018.28
2018-01-29T08:12:04.727Z,1018.33
2018-01-29T08:16:59.865Z,1018.34
2018-01-29T08:22:00.105Z,1018.40
2018-01-29T08:27:01.422Z,1018.50
2018-01-29T08:32:00.340Z,1018.44
2018-01-29T08:36:59.328Z,1018.28
2018-01-29T08:41:58.039Z,1018.18
2018-01-29T08:46:57.243Z,1018.29
2018-01-29T08:51:56.355Z,1018.14
2018-01-29T09:01:59.023Z,1018.06
2018-01-29T09:06:58.079Z,1018.01
2018-01-29T09:11:57.131Z,1018.02
2018-01-29T09:16:57.264Z,1017.95
2018-01-29T09:21:57.125Z,1017.81
2018-01-29T09:26:55.969Z,1017.97
2018-01-29T09:31:56.471Z,1017.90
2018-01-29T09:36:51.356Z,1017.81
2018-01-29T09:41:52.476Z,1018.04
2018-01-29T09:46:52.502Z,1017.82
2018-01-29T09:51:52.477Z,1017.92
2018-01-29T09:56:52.671Z,1017.96
2018-01-29T10:01:47.769Z,1017.82
2018-01-29T10:06:47.494Z,1017.76
2018-01-29T10:11:46.869Z,1017.69
2018-01-29T10:16:47.880Z,1017.71
2018-01-29T10:21:46.332Z,1017.86
2018-01-29T10:26:45.150Z,1017.65
2018-01-29T10:31:44.231Z,1017.67
2018-01-29T10:36:41.366Z,1017.54
2018-01-29T10:41:41.266Z,1017.55
2018-01-29T10:46:41.493Z,1017.35
2018-01-29T10:51:41.232Z,1017.26
2018-01-29T10:56:40.661Z,1017.22
2018-01-29T11:06:42.504Z,1017.13
2018-01-29T11:11:37.221Z,1017.16
2018-01-29T11:16:34.208Z,1016.98
2018-01-29T11:21:36.130Z,1016.85
2018-01-29T11:26:30.727Z,1016.80
2018-01-29T11:31:31.363Z,1016.68
2018-01-29T11:36:30.735Z,1016.55
2018-01-29T11:41:33.640Z,1016.51
2018-01-29T11:46:32.332Z,1016.50
2018-01-29T11:56:31.863Z,1016.12
2018-01-29T12:01:32.292Z,1016.03
2018-01-29T12:06:32.488Z,1015.88
2018-01-29T12:11:32.259Z,1015.90
2018-01-29T12:16:30.822Z,1015.91
2018-01-29T12:21:31.756Z,1015.92
2018-01-29T12:26:33.231Z,1015.85
2018-01-29T12:31:32.288Z,1015.79
2018-01-29T12:36:31.099Z,1015.79
2018-01-29T12:41:27.544Z,1015.66
2018-01-29T12:46:26.933Z,1015.45
2018-01-29T12:51:26.330Z,1015.47
2018-01-29T13:01:27.996Z,1015.10
2018-01-29T13:06:29.078Z,1015.03
2018-01-29T13:11:24.062Z,1014.98
2018-01-29T13:16:23.743Z,1015.01
2018-01-29T13:26:25.420Z,1014.56
2018-01-29T13:31:22.563Z,1014.57
2018-01-29T13:41:24.011Z,1014.50
2018-01-29T13:46:23.407Z,1014.43
2018-01-29T13:51:22.533Z,1014.41
2018-01-29T13:56:21.149Z,1014.30
2018-01-29T14:01:20.152Z,1014.25
2018-01-29T14:06:19.169Z,1014.14
2018-01-29T14:11:14.017Z,1014.14
2018-01-29T14:16:14.068Z,1014.09
2018-01-29T14:21:14.327Z,1013.97
2018-01-29T14:26:13.996Z,1013.80
2018-01-29T14:31:12.404Z,1013.84
2018-01-29T14:36:11.167Z,1013.70
2018-01-29T14:41:07.519Z,1013.69
2018-01-29T14:46:03.965Z,1013.74
2018-01-29T14:51:00.613Z,1013.61
2018-01-29T14:56:00.327Z,1013.52
2018-01-29T15:00:55.038Z,1013.66
2018-01-29T15:05:56.613Z,1013.56
2018-01-29T15:10:55.405Z,1013.45
2018-01-29T15:15:52.049Z,1013.15
2018-01-29T15:20:51.758Z,1012.95
2018-01-29T15:25:52.203Z,1013.07
2018-01-29T15:30:51.457Z,1012.97
2018-01-29T15:35:50.804Z,1013.13
2018-01-29T15:40:45.731Z,1013.20
2018-01-29T15:45:45.601Z,1013.24
2018-01-29T15:50:48.095Z,1013.16
2018-01-29T15:55:49.292Z,1013.36
2018-01-29T16:00:48.955Z,1013.36
2018-01-29T16:05:47.752Z,1013.35
2018-01-29T16:10:43.759Z,1013.36
2018-01-29T16:15:44.185Z,1013.41
2018-01-29T16:20:43.424Z,1013.42
2018-01-29T16:25:38.548Z,1013.34
2018-01-29T16:30:38.623Z,1013.41
2018-01-29T16:35:34.834Z,1013.34
2018-01-29T16:40:35.067Z,1013.36
2018-01-29T16:45:34.088Z,1013.30
2018-01-29T16:50:29.999Z,1013.30
2018-01-29T16:55:30.516Z,1013.27
2018-01-29T17:00:26.437Z,1013.15
2018-01-29T17:05:27.077Z,1013.20
2018-01-29T17:10:26.593Z,1013.12
2018-01-29T17:15:21.791Z,1013.03
2018-01-29T17:20:21.724Z,1013.02
2018-01-29T17:25:20.730Z,1012.99
2018-01-29T17:30:20.700Z,1013.03
2018-01-29T17:35:20.491Z,1013.09
2018-01-29T17:40:19.052Z,1013.25
2018-01-29T17:45:15.040Z,1013.17
2018-01-29T17:50:14.092Z,1013.34
2018-01-29T17:55:13.879Z,1013.31
2018-01-29T18:00:14.286Z,1013.39
2018-01-29T18:05:14.333Z,1013.41
2018-01-29T18:10:13.168Z,1013.50
2018-01-29T18:15:12.535Z,1013.59
2018-01-29T18:20:11.345Z,1013.80
2018-01-29T18:25:11.519Z,1014.13
2018-01-29T18:30:06.703Z,1014.32
2018-01-29T18:35:06.163Z,1014.64
2018-01-29T18:40:04.674Z,1014.76
2018-01-29T18:45:04.426Z,1015.03
2018-01-29T18:50:04.142Z,1015.04
2018-01-29T18:55:01.219Z,1015.22
2018-01-29T18:59:56.493Z,1015.38
2018-01-29T19:04:56.489Z,1015.59
2018-01-29T19:09:51.399Z,1015.65
2018-01-29T19:14:47.661Z,1015.79
2018-01-29T19:19:43.272Z,1016.03
2018-01-29T19:24:40.268Z,1016.06
2018-01-29T19:29:37.644Z,1016.30
2018-01-29T19:34:33.433Z,1016.39
2018-01-29T19:39:29.979Z,1016.47
2018-01-29T19:44:29.794Z,1016.82
2018-01-29T19:49:25.862Z,1016.87
2018-01-29T19:54:21.231Z,1016.95
2018-01-29T19:59:17.201Z,1017.13
2018-01-29T20:04:13.868Z,1017.29
2018-01-29T20:09:13.916Z,1017.21
2018-01-29T20:14:08.792Z,1017.43
2018-01-29T20:19:08.457Z,1017.54
2018-01-29T20:29:11.384Z,1017.55
2018-01-29T20:34:10.989Z,1017.68
2018-01-29T20:39:10.193Z,1017.66
2018-01-29T20:44:11.893Z,1017.80
2018-01-29T20:49:10.550Z,1017.81
2018-01-29T20:54:10.564Z,1017.90
2018-01-29T21:04:09.256Z,1018.20
2018-01-29T21:09:08.699Z,1018.22
2018-01-29T21:14:04.810Z,1018.30
2018-01-29T21:24:04.509Z,1018.59
2018-01-29T21:29:03.589Z,1018.63
2018-01-29T21:34:03.876Z,1018.81
2018-01-29T21:44:06.799Z,1018.93
2018-01-29T21:49:05.722Z,1018.80
2018-01-29T21:54:04.523Z,1018.74
2018-01-29T21:59:04.557Z,1018.83
2018-01-29T22:04:05.973Z,1019.04
2018-01-29T22:09:00.605Z,1019.21
2018-01-29T22:14:03.114Z,1019.22
2018-01-29T22:18:59.044Z,1019.45
2018-01-29T22:23:56.939Z,1019.60
2018-01-29T22:28:57.104Z,1019.73
2018-01-29T22:33:55.540Z,1019.72
2018-01-29T22:38:54.375Z,1019.89
2018-01-29T22:43:54.053Z,1019.94
2018-01-29T22:48:52.742Z,1019.95
2018-01-29T22:53:48.475Z,1019.92
2018-01-29T22:58:43.820Z,1020.05
2018-01-29T23:03:43.433Z,1020.21
2018-01-29T23:08:44.358Z,1020.26
2018-01-29T23:13:38.374Z,1020.26
2018-01-29T23:18:34.392Z,1020.42
2018-01-29T23:23:35.136Z,1020.44
2018-01-29T23:28:34.964Z,1020.49
2018-01-29T23:33:33.269Z,1020.68
2018-01-29T23:38:31.841Z,1020.66
2018-01-29T23:43:32.840Z,1020.84
2018-01-29T23:48:32.851Z,1020.80
2018-01-29T23:53:33.743Z,1020.94
2018-01-29T23:58:33.076Z,1021.01
